Time;durP1;ratioP1;P1;durP2;ratioP2;P2;SDS_P1;SDS_P2;PMS_P1;PMS_P2;Temp;Humidity;BMP_temperature;BMP_pressure;BME280_temperature;BME280_humidity;BME280_pressure;Samples;Min_cycle;Max_cycle;Signal;HPM_P1;HPM_P2
2021/09/09 00:01:38;;;;;;;22.23;7.65;;;17.10;73.30;;;;;;5075453;28;20093;-67
2021/09/09 00:04:04;;;;;;;15.15;6.40;;;17.20;74.00;;;;;;5075759;28;20474;-67
2021/09/09 00:06:29;;;;;;;8.52;3.70;;;17.10;74.20;;;;;;5075742;28;20039;-68
2021/09/09 00:08:55;;;;;;;7.78;3.83;;;17.10;74.20;;;;;;5075759;28;20373;-70
2021/09/09 00:11:21;;;;;;;10.48;3.50;;;17.10;74.60;;;;;;5075645;28;20032;-70
2021/09/09 00:13:47;;;;;;;11.45;3.90;;;17.10;75.30;;;;;;5075664;28;20108;-69
2021/09/09 00:16:13;;;;;;;14.32;3.67;;;17.10;76.90;;;;;;5075175;28;20028;-69
2021/09/09 00:18:39;;;;;;;6.78;3.65;;;17.10;77.60;;;;;;5057519;28;20131;-69
2021/09/09 00:21:05;;;;;;;6.18;3.63;;;17.10;78.00;;;;;;5075444;28;20384;-69
2021/09/09 00:23:31;;;;;;;6.05;3.80;;;17.00;78.10;;;;;;5057528;28;20032;-70
2021/09/09 00:25:57;;;;;;;12.18;3.63;;;17.00;78.50;;;;;;5057448;28;20214;-70
2021/09/09 00:28:23;;;;;;;9.55;4.13;;;17.00;78.40;;;;;;5057024;28;20477;-69
2021/09/09 00:30:51;;;;;;;12.73;4.15;;;17.00;78.50;;;;;;5075340;28;20024;-69
2021/09/09 00:33:18;;;;;;;6.03;3.80;;;17.00;78.10;;;;;;5075275;28;20028;-69
2021/09/09 00:35:44;;;;;;;9.50;3.78;;;16.90;77.60;;;;;;5057502;28;20373;-69
2021/09/09 00:38:10;;;;;;;7.68;3.35;;;16.90;77.50;;;;;;5074816;28;20039;-69
2021/09/09 00:40:35;;;;;;;6.72;3.35;;;16.90;77.50;;;;;;5075147;28;20112;-69
2021/09/09 00:43:01;;;;;;;7.82;3.47;;;16.90;76.80;;;;;;5075057;28;20036;-68
2021/09/09 00:45:28;;;;;;;9.50;3.55;;;16.90;76.70;;;;;;5075382;28;20492;-69
2021/09/09 00:47:54;;;;;;;14.98;4.10;;;16.80;76.70;;;;;;5056946;28;20032;-69
2021/09/09 00:50:20;;;;;;;10.65;3.55;;;16.80;76.40;;;;;;5056917;28;20381;-69
2021/09/09 00:52:48;;;;;;;8.50;3.38;;;16.80;76.10;;;;;;5074845;28;20052;-69
2021/09/09 00:55:15;;;;;;;7.55;3.15;;;16.80;76.20;;;;;;5056847;28;20119;-68
2021/09/09 00:57:41;;;;;;;10.52;3.45;;;16.80;76.20;;;;;;5056750;28;20101;-68
2021/09/09 01:00:09;;;;;;;5.90;3.30;;;16.80;76.30;;;;;;5074494;28;20486;-68
2021/09/09 01:02:35;;;;;;;7.35;3.53;;;16.80;76.20;;;;;;5074261;28;20048;-68
2021/09/09 01:05:01;;;;;;;7.55;3.10;;;16.80;76.60;;;;;;5056693;28;20025;-68
2021/09/09 01:07:27;;;;;;;11.00;2.78;;;16.80;76.30;;;;;;5074481;28;20157;-68
2021/09/09 01:09:53;;;;;;;11.98;3.72;;;16.80;76.20;;;;;;5055271;28;20129;-68
2021/09/09 01:12:19;;;;;;;10.05;3.33;;;16.80;76.10;;;;;;5056496;28;20024;-70
2021/09/09 01:14:45;;;;;;;6.97;3.30;;;16.70;76.10;;;;;;5074744;28;20055;-68
2021/09/09 01:17:11;;;;;;;8.13;2.92;;;16.70;76.30;;;;;;5056357;28;20477;-69
2021/09/09 01:19:37;;;;;;;8.43;3.53;;;16.70;76.70;;;;;;5074644;28;20060;-69
2021/09/09 01:22:06;;;;;;;7.97;3.20;;;16.60;76.70;;;;;;5074317;28;20056;-67
2021/09/09 01:24:32;;;;;;;10.75;3.60;;;16.60;77.10;;;;;;5074268;28;20101;-69
2021/09/09 01:27:01;;;;;;;4.95;3.10;;;16.50;76.60;;;;;;5056199;28;20067;-68
2021/09/09 01:29:36;;;;;;;5.30;3.05;;;16.50;77.10;;;;;;5074177;28;20016;-67
2021/09/09 01:32:03;;;;;;;14.43;3.60;;;16.50;77.40;;;;;;5073885;28;20424;-69
2021/09/09 01:34:29;;;;;;;7.57;3.90;;;16.40;77.90;;;;;;5056089;28;20020;-70
2021/09/09 01:36:55;;;;;;;9.13;4.00;;;;;;;;;;5055958;28;20028;-71
2021/09/09 01:39:21;;;;;;;8.55;3.03;;;;;;;;;;5074223;28;20101;-70
2021/09/09 01:41:55;;;;;;;8.52;3.60;;;;;;;;;;5074188;28;20025;-66
2021/09/09 01:44:21;;;;;;;9.60;3.38;;;;;;;;;;5074187;28;20033;-67
2021/09/09 01:46:48;;;;;;;8.25;3.53;;;;;;;;;;5073844;28;20115;-68
2021/09/09 01:49:15;;;;;;;6.57;3.30;;;;;;;;;;5073843;28;20083;-67
2021/09/09 01:51:42;;;;;;;12.48;3.65;;;;;;;;;;5073703;28;20028;-67
2021/09/09 01:54:08;;;;;;;7.20;3.22;;;;;;;;;;5055801;28;20490;-67
2021/09/09 01:56:34;;;;;;;8.20;3.08;;;;;;;;;;5055557;28;20029;-71
2021/09/09 01:59:01;;;;;;;9.05;3.65;;;;;;;;;;5073603;28;20029;-71
2021/09/09 02:01:27;;;;;;;9.07;3.55;;;;;;;;;;5055150;28;20048;-70
2021/09/09 02:03:53;;;;;;;10.77;3.47;;;;;;;;;;5073553;28;20105;-70
2021/09/09 02:06:20;;;;;;;11.50;4.13;;;;;;;;;;5073283;28;20021;-71
2021/09/09 02:08:46;;;;;;;13.30;4.95;;;;;;;;;;5055546;28;20458;-71
2021/09/09 02:11:12;;;;;;;9.93;4.20;;;;;;;;;;5073786;28;20095;-70
2021/09/09 02:13:38;;;;;;;8.63;3.92;;;;;;;;;;5073386;28;20021;-70
2021/09/09 02:16:05;;;;;;;16.25;4.07;;;;;;;;;;5055447;28;20127;-71
2021/09/09 02:18:31;;;;;;;7.05;3.42;;;;;;;;;;5055210;28;20032;-71
2021/09/09 02:20:58;;;;;;;5.90;3.42;;;;;;;;;;5072958;28;20039;-71
2021/09/09 02:23:24;;;;;;;10.77;3.63;;;16.40;78.30;;;;;;5073237;28;20074;-70
2021/09/09 02:25:50;;;;;;;8.82;3.70;;;15.90;80.40;;;;;;5073307;28;20058;-70
2021/09/09 02:28:16;;;;;;;13.90;4.65;;;15.80;79.80;;;;;;5073217;28;20036;-70
2021/09/09 02:30:43;;;;;;;5.72;3.75;;;15.80;79.30;;;;;;5073153;28;20039;-70
2021/09/09 02:33:09;;;;;;;7.72;3.85;;;15.80;78.60;;;;;;5073126;28;20025;-70
2021/09/09 02:35:35;;;;;;;6.15;3.65;;;15.80;78.70;;;;;;5073139;28;20086;-70
2021/09/09 02:38:01;;;;;;;6.78;3.40;;;15.80;78.80;;;;;;5073051;28;20040;-70
2021/09/09 02:40:27;;;;;;;7.07;3.35;;;15.80;78.90;;;;;;5072822;28;20036;-71
2021/09/09 02:42:53;;;;;;;8.82;3.78;;;15.80;79.10;;;;;;5073023;28;20108;-71
2021/09/09 02:45:19;;;;;;;10.60;3.33;;;15.70;79.10;;;;;;5072802;28;20100;-67
2021/09/09 02:47:45;;;;;;;12.98;3.95;;;15.60;79.60;;;;;;5054945;28;20431;-69
2021/09/09 02:50:12;;;;;;;6.80;3.92;;;15.60;80.20;;;;;;5054906;28;20028;-69
2021/09/09 02:52:39;;;;;;;14.30;4.15;;;15.60;80.20;;;;;;5054847;28;20032;-69
2021/09/09 02:55:05;;;;;;;9.00;4.10;;;15.60;80.50;;;;;;5054913;28;20021;-69
2021/09/09 02:57:31;;;;;;;7.55;3.88;;;15.50;80.80;;;;;;5054784;28;20028;-69
2021/09/09 02:59:57;;;;;;;7.72;4.20;;;15.50;81.00;;;;;;5072893;28;20040;-69
2021/09/09 03:02:24;;;;;;;9.80;4.32;;;15.40;81.30;;;;;;5072751;28;20052;-69
2021/09/09 03:04:51;;;;;;;8.07;3.60;;;15.40;81.40;;;;;;5072843;28;20027;-68
2021/09/09 03:07:17;;;;;;;6.30;3.90;;;15.40;80.90;;;;;;5072801;28;20025;-67
2021/09/09 03:09:43;;;;;;;8.60;3.80;;;15.40;81.00;;;;;;5054735;28;20347;-67
2021/09/09 03:12:09;;;;;;;9.95;3.90;;;15.30;81.20;;;;;;5072796;28;20032;-68
2021/09/09 03:14:35;;;;;;;6.43;4.00;;;15.30;81.00;;;;;;5072762;28;20427;-68
2021/09/09 03:17:00;;;;;;;8.32;4.00;;;15.20;81.30;;;;;;5072630;28;20028;-68
2021/09/09 03:19:26;;;;;;;12.07;4.18;;;15.30;81.40;;;;;;5072674;28;20484;-68
2021/09/09 03:21:52;;;;;;;8.65;4.05;;;15.30;80.90;;;;;;5054669;28;20060;-68
2021/09/09 03:24:19;;;;;;;7.05;3.33;;;15.30;81.00;;;;;;5072603;28;20103;-67
2021/09/09 03:26:44;;;;;;;10.35;4.25;;;15.30;81.20;;;;;;5072667;28;20032;-67
2021/09/09 03:29:13;;;;;;;6.43;4.22;;;15.20;81.40;;;;;;5072598;28;20477;-68
2021/09/09 03:31:39;;;;;;;9.35;4.03;;;15.20;81.30;;;;;;5073072;28;20056;-68
2021/09/09 03:34:05;;;;;;;10.25;3.97;;;15.10;81.30;;;;;;5076349;28;20071;-68
2021/09/09 03:36:31;;;;;;;6.05;3.47;;;15.10;81.50;;;;;;5058240;28;20032;-68
2021/09/09 03:38:57;;;;;;;14.52;4.55;;;15.10;82.20;;;;;;5076294;28;20039;-68
2021/09/09 03:41:22;;;;;;;11.02;4.45;;;15.00;82.30;;;;;;5058196;28;20024;-69
2021/09/09 03:43:48;;;;;;;8.23;4.45;;;15.00;82.60;;;;;;5057925;28;20029;-69
2021/09/09 03:46:14;;;;;;;10.60;4.55;;;15.00;82.80;;;;;;5076195;28;20099;-68
2021/09/09 03:48:40;;;;;;;9.32;4.55;;;15.00;83.00;;;;;;5075760;28;20021;-69
2021/09/09 03:51:06;;;;;;;8.85;4.63;;;14.90;83.10;;;;;;5076352;28;20029;-69
2021/09/09 03:53:32;;;;;;;10.63;4.40;;;14.90;83.10;;;;;;5057936;28;20028;-71
2021/09/09 03:55:58;;;;;;;11.82;5.28;;;14.90;83.20;;;;;;5075749;28;20060;-72
2021/09/09 03:58:24;;;;;;;9.10;4.20;;;14.80;83.20;;;;;;5057791;28;20028;-71
2021/09/09 04:00:49;;;;;;;10.23;4.15;;;14.80;83.60;;;;;;5075900;28;20035;-70
2021/09/09 04:03:15;;;;;;;8.93;4.05;;;14.90;84.00;;;;;;5057365;28;20075;-71
2021/09/09 04:05:41;;;;;;;8.32;4.75;;;14.80;84.20;;;;;;5057862;28;20025;-70
2021/09/09 04:08:07;;;;;;;8.23;4.57;;;14.80;84.50;;;;;;5076025;28;20029;-70
2021/09/09 04:10:34;;;;;;;11.95;4.43;;;14.80;84.90;;;;;;5075721;28;20036;-70
2021/09/09 04:13:01;;;;;;;9.10;4.03;;;14.70;84.70;;;;;;5075641;28;20045;-70
2021/09/09 04:15:28;;;;;;;5.53;3.85;;;14.70;85.00;;;;;;5075676;28;20110;-71
2021/09/09 04:17:53;;;;;;;11.50;4.40;;;14.70;84.90;;;;;;5075542;28;20043;-72
2021/09/09 04:20:19;;;;;;;7.72;3.97;;;14.60;85.20;;;;;;5057486;28;20403;-71
2021/09/09 04:22:45;;;;;;;12.93;5.28;;;14.60;85.70;;;;;;5075220;28;20032;-69
2021/09/09 04:25:11;;;;;;;11.95;4.65;;;14.60;86.20;;;;;;5075443;28;20029;-69
2021/09/09 04:27:38;;;;;;;4.90;3.75;;;14.70;87.20;;;;;;5075367;28;20050;-69
2021/09/09 04:30:05;;;;;;;12.10;4.38;;;14.60;87.20;;;;;;5075336;28;20017;-69
2021/09/09 04:32:31;;;;;;;10.43;4.03;;;14.70;87.10;;;;;;5057231;28;20031;-69
2021/09/09 04:34:57;;;;;;;10.60;4.05;;;14.70;87.30;;;;;;5075004;28;20029;-70
2021/09/09 04:37:22;;;;;;;9.10;4.55;;;14.70;87.80;;;;;;5057138;28;20028;-68
2021/09/09 04:39:49;;;;;;;7.60;4.43;;;14.70;88.30;;;;;;5075131;28;20025;-71
2021/09/09 04:42:14;;;;;;;8.70;4.60;;;14.70;88.50;;;;;;5074984;28;20035;-68
2021/09/09 04:44:41;;;;;;;14.18;4.68;;;14.70;88.10;;;;;;5075014;28;20033;-69
2021/09/09 04:47:06;;;;;;;9.32;4.85;;;14.70;88.30;;;;;;5057163;28;20056;-70
2021/09/09 04:49:32;;;;;;;13.60;5.40;;;14.70;88.40;;;;;;5057179;28;20511;-68
2021/09/09 04:51:58;;;;;;;8.63;4.57;;;14.70;88.20;;;;;;5056931;28;20029;-68
2021/09/09 04:54:24;;;;;;;9.88;4.80;;;14.70;88.30;;;;;;5075094;28;20350;-68
2021/09/09 04:56:50;;;;;;;12.20;4.78;;;14.60;88.10;;;;;;5074830;28;20036;-67
2021/09/09 04:59:16;;;;;;;10.90;4.03;;;14.70;88.10;;;;;;5075042;28;20039;-68
2021/09/09 05:01:42;;;;;;;11.10;4.68;;;14.60;88.10;;;;;;5074359;28;20409;-69
2021/09/09 05:04:08;;;;;;;9.75;4.40;;;14.60;88.50;;;;;;5074692;28;20162;-68
2021/09/09 05:06:34;;;;;;;10.70;4.88;;;14.60;88.30;;;;;;5074680;28;20082;-68
2021/09/09 05:09:03;;;;;;;12.48;4.82;;;14.60;88.40;;;;;;5056535;28;20024;-69
2021/09/09 05:11:29;;;;;;;9.63;4.70;;;14.60;88.70;;;;;;5056523;28;20020;-70
2021/09/09 05:13:55;;;;;;;15.35;5.15;;;14.50;89.20;;;;;;5074497;28;20027;-69
2021/09/09 05:16:20;;;;;;;16.83;4.72;;;14.60;89.80;;;;;;5056467;28;20032;-69
2021/09/09 05:18:46;;;;;;;14.70;5.68;;;14.50;89.90;;;;;;5074390;28;20118;-69
2021/09/09 05:21:12;;;;;;;13.75;5.38;;;14.60;90.10;;;;;;5056289;28;20035;-68
2021/09/09 05:23:38;;;;;;;9.07;4.97;;;14.60;90.30;;;;;;5074314;28;20036;-68
2021/09/09 05:26:04;;;;;;;16.80;5.72;;;14.60;90.40;;;;;;5056209;28;20543;-68
2021/09/09 05:28:30;;;;;;;13.75;5.20;;;14.70;90.60;;;;;;5073685;28;20111;-68
2021/09/09 05:30:55;;;;;;;16.98;4.80;;;14.80;90.70;;;;;;5073857;28;20024;-71
2021/09/09 05:33:21;;;;;;;14.73;4.90;;;14.90;91.00;;;;;;5056130;28;20085;-70
2021/09/09 05:35:47;;;;;;;19.92;4.40;;;15.00;91.00;;;;;;5074014;28;20377;-70
2021/09/09 05:38:13;;;;;;;15.68;4.57;;;15.10;91.20;;;;;;5055959;28;20043;-70
2021/09/09 05:40:39;;;;;;;12.75;4.75;;;15.20;91.20;;;;;;5073950;28;20029;-71
2021/09/09 05:43:05;;;;;;;7.65;4.80;;;15.30;91.20;;;;;;5073905;28;20347;-70
2021/09/09 05:45:31;;;;;;;10.35;4.28;;;15.40;91.20;;;;;;5073722;28;20025;-70
2021/09/09 05:47:57;;;;;;;13.88;4.45;;;15.60;91.10;;;;;;5073803;28;20032;-71
2021/09/09 05:50:23;;;;;;;9.65;4.80;;;15.60;90.90;;;;;;5072809;28;20021;-72
2021/09/09 05:52:49;;;;;;;13.75;5.90;;;15.80;90.60;;;;;;5053673;28;20077;-71
2021/09/09 05:55:15;;;;;;;14.63;5.40;;;15.90;90.00;;;;;;5071795;28;20032;-70
2021/09/09 05:57:41;;;;;;;9.63;4.75;;;15.90;89.50;;;;;;5055629;28;20485;-70
2021/09/09 06:00:09;;;;;;;15.05;4.50;;;16.00;89.30;;;;;;5073795;28;20035;-68
2021/09/09 06:02:42;;;;;;;13.27;4.65;;;16.10;88.80;;;;;;5055004;28;20058;-69
2021/09/09 06:05:09;;;;;;;10.95;5.97;;;16.20;89.10;;;;;;5073237;28;20374;-69
2021/09/09 06:07:35;;;;;;;18.10;6.50;;;;;;;;;;5073473;28;20464;-68
2021/09/09 06:10:01;;;;;;;15.75;6.50;;;16.30;88.80;;;;;;5073596;28;20035;-69
2021/09/09 06:12:27;;;;;;;20.23;8.63;;;16.40;87.40;;;;;;5073697;28;20043;-68
2021/09/09 06:14:54;;;;;;;35.10;13.45;;;16.50;86.80;;;;;;5055247;28;20111;-68
2021/09/09 06:17:20;;;;;;;32.33;15.05;;;16.50;85.90;;;;;;5073038;28;20037;-69
2021/09/09 06:19:46;;;;;;;32.70;14.20;;;16.60;85.20;;;;;;5073374;28;20538;-69
2021/09/09 06:22:13;;;;;;;41.10;16.65;;;16.60;84.70;;;;;;5055245;28;20025;-70
2021/09/09 06:24:38;;;;;;;32.58;14.73;;;16.70;85.10;;;;;;5073185;28;20029;-72
2021/09/09 06:27:05;;;;;;;31.40;14.57;;;;;;;;;;5055197;28;20492;-71
2021/09/09 06:29:30;;;;;;;25.77;12.52;;;16.80;85.00;;;;;;5073168;28;20134;-69
2021/09/09 06:31:56;;;;;;;24.63;9.18;;;17.00;83.30;;;;;;5072901;28;20115;-73
2021/09/09 06:34:22;;;;;;;22.02;7.82;;;17.10;84.20;;;;;;5055046;28;20043;-70
2021/09/09 06:36:48;;;;;;;20.33;8.23;;;17.20;82.30;;;;;;5055012;28;20485;-73
2021/09/09 06:39:14;;;;;;;18.00;7.15;;;17.30;81.70;;;;;;5054908;28;20028;-71
2021/09/09 06:41:45;;;;;;;20.60;7.18;;;17.40;81.30;;;;;;5054884;28;20032;-71
2021/09/09 06:44:14;;;;;;;11.65;4.78;;;17.50;81.90;;;;;;5055028;28;20036;-70
2021/09/09 06:46:42;;;;;;;7.05;3.72;;;17.70;80.30;;;;;;5054970;28;20039;-70
2021/09/09 06:49:08;;;;;;;7.93;3.33;;;17.80;80.10;;;;;;5072595;28;20494;-69
2021/09/09 06:51:34;;;;;;;5.38;3.20;;;17.80;79.30;;;;;;5072857;28;20047;-71
2021/09/09 06:54:00;;;;;;;8.25;3.33;;;17.90;80.10;;;;;;5072894;28;20032;-69
2021/09/09 06:56:26;;;;;;;13.57;4.35;;;18.00;80.80;;;;;;5072777;28;20029;-70
2021/09/09 06:58:53;;;;;;;16.55;4.07;;;18.10;81.20;;;;;;5072817;28;20033;-70
2021/09/09 07:01:19;;;;;;;16.67;4.18;;;18.20;80.60;;;;;;5072414;28;20469;-70
2021/09/09 07:03:45;;;;;;;11.70;4.05;;;18.30;81.20;;;;;;5054852;28;20024;-69
2021/09/09 07:06:11;;;;;;;8.57;3.60;;;18.40;80.90;;;;;;5073778;28;20051;-69
2021/09/09 07:08:37;;;;;;;14.23;4.25;;;18.50;81.20;;;;;;5058822;28;20038;-70
2021/09/09 07:11:03;;;;;;;13.00;3.30;;;18.70;79.20;;;;;;5058148;28;20107;-70
2021/09/09 07:13:31;;;;;;;14.48;3.80;;;18.80;78.30;;;;;;5076736;28;20029;-70
2021/09/09 07:16:00;;;;;;;10.65;3.50;;;18.90;79.30;;;;;;5058428;28;20028;-69
2021/09/09 07:18:28;;;;;;;8.32;3.60;;;19.00;77.80;;;;;;5058216;28;20042;-72
2021/09/09 07:20:54;;;;;;;11.80;2.92;;;19.10;77.70;;;;;;5058399;28;20024;-69
2021/09/09 07:23:20;;;;;;;7.88;3.08;;;19.20;78.60;;;;;;5076615;28;20067;-73
2021/09/09 07:25:47;;;;;;;4.90;2.88;;;19.40;77.20;;;;;;5076367;28;20025;-72
2021/09/09 07:28:14;;;;;;;6.78;2.75;;;19.50;76.60;;;;;;5076489;28;20032;-72
2021/09/09 07:30:39;;;;;;;12.75;2.90;;;19.60;76.50;;;;;;5076414;28;20062;-72
2021/09/09 07:33:05;;;;;;;5.28;3.45;;;19.70;77.00;;;;;;5058349;28;20024;-72
2021/09/09 07:35:32;;;;;;;11.98;3.55;;;19.80;75.30;;;;;;5076276;28;20024;-71
2021/09/09 07:37:58;;;;;;;6.70;3.10;;;19.80;76.60;;;;;;5058162;28;20032;-72
2021/09/09 07:40:24;;;;;;;20.70;3.10;;;19.80;77.50;;;;;;5075963;28;20028;-72
2021/09/09 07:42:50;;;;;;;7.65;2.92;;;19.80;75.70;;;;;;5076319;28;20029;-69
2021/09/09 07:45:16;;;;;;;8.00;3.92;;;19.80;74.90;;;;;;5058072;28;20020;-70
2021/09/09 07:47:42;;;;;;;7.00;3.28;;;19.80;74.60;;;;;;5058099;28;20029;-69
2021/09/09 07:50:09;;;;;;;9.95;3.25;;;19.70;73.30;;;;;;5076317;28;20025;-67
2021/09/09 07:52:42;;;;;;;13.30;3.15;;;19.70;72.70;;;;;;5057896;28;20135;-68
2021/09/09 07:55:09;;;;;;;7.35;3.40;;;19.70;73.60;;;;;;5057790;28;20029;-68
2021/09/09 07:57:35;;;;;;;9.50;4.07;;;19.80;72.80;;;;;;5075650;28;20043;-69
2021/09/09 08:00:02;;;;;;;14.45;3.42;;;19.90;73.20;;;;;;5075589;28;20024;-70
2021/09/09 08:02:28;;;;;;;6.05;3.00;;;20.20;73.00;;;;;;5075807;28;20394;-68
2021/09/09 08:04:54;;;;;;;10.30;3.75;;;20.50;72.70;;;;;;5057714;28;20024;-70
2021/09/09 08:07:20;;;;;;;7.00;2.78;;;20.60;71.00;;;;;;5075687;28;20040;-69
2021/09/09 08:09:46;;;;;;;14.98;3.10;;;20.70;71.50;;;;;;5072765;28;20020;-70
2021/09/09 08:12:12;;;;;;;7.15;2.88;;;21.10;69.60;;;;;;5074703;28;20025;-68
2021/09/09 08:14:38;;;;;;;8.48;2.95;;;21.30;69.70;;;;;;5057212;28;20042;-71
2021/09/09 08:17:04;;;;;;;8.52;3.20;;;21.50;69.70;;;;;;5074886;28;20413;-69
2021/09/09 08:19:30;;;;;;;10.55;3.38;;;;;;;;;;5074860;28;20017;-67
2021/09/09 08:21:56;;;;;;;12.45;3.63;;;22.10;67.00;;;;;;5075126;28;20048;-67
2021/09/09 08:24:21;;;;;;;7.07;3.60;;;22.30;66.90;;;;;;5075056;28;20456;-68
2021/09/09 08:26:47;;;;;;;9.80;3.38;;;22.60;67.30;;;;;;5075272;28;20066;-69
2021/09/09 08:29:13;;;;;;;12.55;2.90;;;22.80;67.80;;;;;;5057219;28;20035;-67
2021/09/09 08:31:39;;;;;;;15.40;3.63;;;23.00;66.60;;;;;;5074867;28;20060;-67
2021/09/09 08:34:05;;;;;;;8.52;3.20;;;23.10;67.40;;;;;;5074729;28;20028;-69
2021/09/09 08:36:31;;;;;;;8.35;3.13;;;23.30;80.00;;;;;;5055974;28;20399;-67
2021/09/09 08:38:57;;;;;;;10.00;3.08;;;23.40;66.20;;;;;;5074396;28;20115;-70
2021/09/09 08:41:23;;;;;;;4.55;2.70;;;23.60;66.80;;;;;;5074642;28;20096;-68
2021/09/09 08:43:49;;;;;;;13.15;3.03;;;23.80;65.80;;;;;;5056803;28;20028;-69
2021/09/09 08:46:16;;;;;;;7.22;2.35;;;23.90;64.30;;;;;;5074302;28;20027;-69
2021/09/09 08:48:46;;;;;;;9.63;2.63;;;23.90;63.60;;;;;;5056772;28;20058;-66
2021/09/09 08:51:14;;;;;;;14.70;3.30;;;;;;;;;;5074751;28;20059;-66
2021/09/09 08:53:41;;;;;;;11.75;3.53;;;;;;;;;;5074751;28;20369;-71
2021/09/09 08:56:07;;;;;;;8.77;2.60;;;24.00;63.80;;;;;;5074486;28;20044;-70
2021/09/09 08:58:36;;;;;;;6.43;2.30;;;24.10;62.30;;;;;;5074512;28;20037;-70
2021/09/09 09:01:13;;;;;;;11.05;2.72;;;24.00;62.10;;;;;;5056756;28;20098;-76
2021/09/09 09:03:53;;;;;;;7.60;2.63;;;24.00;62.20;;;;;;5033471;28;20123;-70
2021/09/09 09:06:25;;;;;;;10.07;2.90;;;24.20;62.00;;;;;;5033448;28;20025;-70
2021/09/09 09:08:54;;;;;;;;;;;24.50;62.30;;;;;;5035299;28;20046;-70
2021/09/09 09:11:34;;;;;;;7.10;2.67;;;24.70;60.70;;;;;;5034323;28;20345;-69
2021/09/09 09:14:01;;;;;;;8.93;2.40;;;24.80;60.80;;;;;;5034772;28;20099;-69
2021/09/09 09:16:28;;;;;;;10.32;2.97;;;25.00;61.00;;;;;;5033036;28;20036;-69
2021/09/09 09:18:59;;;;;;;8.82;2.42;;;25.40;60.70;;;;;;5034271;28;20037;-71
2021/09/09 09:21:27;;;;;;;14.70;2.53;;;25.60;60.30;;;;;;5034413;28;20657;-73
2021/09/09 09:23:59;;;;;;;10.15;2.40;;;25.60;59.20;;;;;;5034597;28;20034;-70
2021/09/09 09:26:26;;;;;;;9.32;2.63;;;25.60;58.40;;;;;;5034314;28;20474;-72
2021/09/09 09:28:53;;;;;;;8.52;2.70;;;25.70;59.50;;;;;;5033710;28;20402;-71
2021/09/09 09:31:24;;;;;;;9.07;3.28;;;25.80;59.10;;;;;;5033664;28;20033;-69
2021/09/09 09:33:55;;;;;;;10.10;2.55;;;26.00;59.30;;;;;;5034070;28;20494;-71
2021/09/09 09:36:34;;;;;;;;;;;26.20;58.80;;;;;;5033305;28;20394;-71
2021/09/09 09:39:10;;;;;;;9.70;3.20;;;26.40;58.50;;;;;;5032280;28;19949;-69
2021/09/09 09:41:54;;;;;;;12.10;2.60;;;26.40;58.20;;;;;;5032208;28;20546;-69
2021/09/09 09:44:39;;;;;;;11.68;2.67;;;26.40;57.90;;;;;;5033625;28;20033;-70
2021/09/09 09:47:20;;;;;;;8.43;2.70;;;26.40;58.00;;;;;;5033484;28;20092;-69
2021/09/09 09:49:56;;;;;;;9.93;2.78;;;26.50;57.30;;;;;;5032244;28;20414;-69
2021/09/09 09:52:27;;;;;;;4.70;2.28;;;26.40;56.80;;;;;;5033845;28;20116;-69
2021/09/09 09:55:00;;;;;;;18.20;3.17;;;26.50;57.00;;;;;;5033714;28;20104;-69
2021/09/09 09:57:29;;;;;;;8.52;2.80;;;26.40;56.10;;;;;;5033507;28;20041;-70
2021/09/09 09:59:55;;;;;;;18.00;2.92;;;26.40;56.30;;;;;;5033593;28;20036;-70
2021/09/09 10:02:23;;;;;;;12.50;2.60;;;26.50;56.40;;;;;;5040927;28;20152;-71
2021/09/09 10:04:50;;;;;;;7.30;2.22;;;26.70;56.10;;;;;;5053358;28;20098;-70
2021/09/09 10:07:16;;;;;;;15.80;3.03;;;26.80;55.80;;;;;;5052996;28;20116;-70
2021/09/09 10:09:43;;;;;;;17.42;2.95;;;26.90;55.70;;;;;;5051789;28;20410;-70
2021/09/09 10:12:11;;;;;;;76.57;13.98;;;26.80;55.60;;;;;;5053563;28;20051;-70
2021/09/09 10:14:45;;;;;;;46.25;6.63;;;26.70;55.80;;;;;;5053286;28;20104;-69
2021/09/09 10:17:12;;;;;;;19.35;3.15;;;27.30;54.30;;;;;;5051603;28;20033;-68
2021/09/09 10:19:38;;;;;;;11.05;2.83;;;27.60;54.80;;;;;;5052960;28;20025;-69
2021/09/09 10:22:12;;;;;;;13.20;2.25;;;28.20;54.80;;;;;;5052519;28;20024;-69
2021/09/09 10:24:40;;;;;;;16.83;3.00;;;;;;;;;;5052922;28;20032;-70
2021/09/09 10:27:18;;;;;;;5.55;2.40;;;;;;;;;;5053006;28;20072;-71
2021/09/09 10:30:00;;;;;;;8.98;2.53;;;30.40;50.30;;;;;;5052978;28;20032;-71
2021/09/09 10:32:29;;;;;;;23.90;3.50;;;30.90;50.50;;;;;;5053160;28;20404;-71
2021/09/09 10:35:13;;;;;;;19.88;3.92;;;;;;;;;;5052770;28;20029;-68
2021/09/09 10:37:39;;;;;;;10.45;3.00;;;31.80;48.70;;;;;;5052824;28;20048;-69
2021/09/09 10:40:06;;;;;;;11.77;2.83;;;;;;;;;;5053039;28;20036;-68
2021/09/09 10:42:40;;;;;;;9.90;2.67;;;32.00;50.10;;;;;;5051404;28;20017;-69
2021/09/09 10:45:27;;;;;;;13.25;2.35;;;33.50;47.00;;;;;;5052911;28;20030;-69
2021/09/09 10:47:52;;;;;;;9.82;2.80;;;34.10;46.50;;;;;;5052432;28;20044;-69
2021/09/09 10:50:24;;;;;;;10.63;2.78;;;34.30;45.20;;;;;;5051254;28;20038;-70
2021/09/09 10:52:59;;;;;;;36.92;5.25;;;;;;;;;;5052645;28;20056;-72
2021/09/09 10:55:27;;;;;;;15.43;3.15;;;34.60;44.80;;;;;;5051531;28;20017;-74
2021/09/09 10:58:14;;;;;;;10.00;2.88;;;36.10;43.40;;;;;;5051344;28;20029;-70
2021/09/09 11:00:58;;;;;;;10.77;2.90;;;36.30;42.30;;;;;;5051480;28;20025;-72
2021/09/09 11:03:36;;;;;;;12.63;2.88;;;36.90;42.00;;;;;;5066796;28;20125;-71
2021/09/09 11:06:23;;;;;;;6.60;2.53;;;37.50;41.70;;;;;;5054412;28;20032;-70
2021/09/09 11:08:54;;;;;;;7.70;2.95;;;37.90;39.90;;;;;;5072762;28;20024;-73
2021/09/09 11:11:28;;;;;;;9.45;2.92;;;37.50;40.40;;;;;;5072768;28;20459;-72
2021/09/09 11:13:59;;;;;;;8.18;2.60;;;38.40;39.80;;;;;;5072658;28;20048;-72
2021/09/09 11:16:28;;;;;;;12.13;3.28;;;38.50;40.30;;;;;;5054586;28;20465;-69
2021/09/09 11:18:54;;;;;;;12.50;2.67;;;39.00;40.40;;;;;;5054533;28;20499;-72
2021/09/09 11:21:22;;;;;;;7.25;2.60;;;39.10;38.70;;;;;;5072324;28;20381;-70
2021/09/09 11:23:50;;;;;;;6.18;2.40;;;39.60;38.60;;;;;;5054564;28;20477;-72
2021/09/09 11:26:20;;;;;;;8.77;2.28;;;39.80;37.60;;;;;;5054458;28;20484;-70
2021/09/09 11:28:48;;;;;;;8.32;2.75;;;40.20;37.50;;;;;;5054445;28;20165;-69
2021/09/09 11:31:21;;;;;;;8.55;2.13;;;40.80;38.50;;;;;;5072429;28;20043;-70
2021/09/09 11:33:58;;;;;;;5.00;2.30;;;;;;;;;;5072843;28;20033;-71
2021/09/09 11:36:27;;;;;;;8.18;2.47;;;40.40;37.80;;;;;;5072494;28;20146;-73
2021/09/09 11:38:54;;;;;;;9.13;2.50;;;40.60;35.90;;;;;;5054456;28;20047;-73
2021/09/09 11:41:22;;;;;;;5.85;2.35;;;41.10;36.60;;;;;;5054577;28;20099;-72
2021/09/09 11:43:51;;;;;;;8.20;2.50;;;41.00;35.80;;;;;;5072217;28;20028;-73
2021/09/09 11:46:29;;;;;;;8.05;2.47;;;41.50;35.80;;;;;;5072362;28;20062;-71
2021/09/09 11:49:13;;;;;;;11.60;2.70;;;41.60;36.50;;;;;;5072274;28;20025;-73
2021/09/09 11:51:47;;;;;;;9.02;2.50;;;41.40;34.90;;;;;;5072388;28;20039;-72
2021/09/09 11:54:30;;;;;;;8.13;2.47;;;42.00;35.70;;;;;;5075256;28;20024;-72
2021/09/09 11:57:14;;;;;;;5.30;2.28;;;42.20;35.50;;;;;;5076202;28;20047;-73
2021/09/09 11:59:49;;;;;;;6.80;2.30;;;;;;;;;;5075881;28;20033;-71
2021/09/09 12:02:19;;;;;;;6.18;2.35;;;42.70;34.70;;;;;;5089425;28;20044;-72
2021/09/09 12:04:45;;;;;;;9.67;2.60;;;42.70;34.60;;;;;;5078236;28;20384;-70
2021/09/09 12:07:23;;;;;;;5.63;2.15;;;42.40;36.80;;;;;;5094483;28;20092;-72
2021/09/09 12:10:20;;;;;;;7.00;2.40;;;42.80;35.30;;;;;;5083920;28;20121;-71
2021/09/09 12:12:57;;;;;;;9.80;3.08;;;43.10;35.60;;;;;;5060085;28;20040;-70
2021/09/09 12:15:25;;;;;;;14.70;2.30;;;43.60;35.10;;;;;;5077715;28;20075;-73
2021/09/09 12:17:50;;;;;;;7.50;2.17;;;42.10;35.90;;;;;;5078443;28;20039;-71
2021/09/09 12:20:26;;;;;;;8.45;2.10;;;41.40;35.50;;;;;;5060514;28;20381;-71
2021/09/09 12:22:59;;;;;;;7.50;2.72;;;41.50;35.50;;;;;;5078790;28;20029;-69
2021/09/09 12:25:28;;;;;;;3.00;2.00;;;41.20;34.60;;;;;;5077676;28;20473;-68
2021/09/09 12:28:16;;;;;;;10.02;2.58;;;41.10;35.90;;;;;;5076258;28;20036;-69
2021/09/09 12:30:53;;;;;;;5.93;2.83;;;42.10;35.30;;;;;;5075207;28;20028;-71
2021/09/09 12:33:28;;;;;;;7.00;2.35;;;42.90;34.30;;;;;;5074913;28;20113;-71
2021/09/09 12:36:20;;;;;;;6.82;2.72;;;43.00;35.80;;;;;;5074989;28;20028;-67
2021/09/09 12:38:51;;;;;;;8.10;2.40;;;43.20;34.00;;;;;;5056958;28;20032;-67
2021/09/09 12:41:17;;;;;;;3.92;2.50;;;43.30;34.10;;;;;;5074951;28;20507;-68
2021/09/09 12:43:50;;;;;;;4.13;2.45;;;43.50;34.60;;;;;;5074757;28;20028;-67
2021/09/09 12:46:44;;;;;;;8.02;3.55;;;43.60;33.30;;;;;;5057115;28;20046;-67
2021/09/09 12:49:19;;;;;;;9.82;2.72;;;43.40;33.20;;;;;;5074758;28;20033;-67
2021/09/09 12:51:49;;;;;;;3.22;2.20;;;43.90;33.30;;;;;;5074673;28;20120;-67
2021/09/09 12:54:17;;;;;;;5.03;2.20;;;43.90;34.00;;;;;;5074402;28;20039;-67
2021/09/09 12:56:49;;;;;;;8.40;2.28;;;43.00;34.50;;;;;;5074535;28;20021;-67
2021/09/09 12:59:25;;;;;;;5.45;2.30;;;43.00;34.70;;;;;;5056761;28;20040;-68